IAD weather

Washington Dulles International Airport
Washington, District of Columbia, United States

Public forecast

Using degrees Fahrenheit for public forecast. Weather courtesy of forecast.io.

Current aviation weather report (METAR) for Washington Dulles International Airport

Retrieved 2019/10/13 17:52 UTC (1 hour ago):

KIAD 131752Z VRB03KT 10SM FEW032 OVC037 18/02 A3006 RMK AO2 SLP178 T01780022 10183 20117 58021

Aviation forecast (TAF) for Washington Dulles International Airport

Retrieved 2019/10/13 18:22 UTC (35 minutes ago):

TAF KIAD 131720Z 1318/1424 15004KT P6SM BKN045 FM132000 16006KT P6SM BKN060 FM132300 16005KT P6SM SCT150 FM140900 VRB03KT 6SM BR SCT040 FM141200 VRB03KT P6SM SCT250